Metamora, OH

4:07 AM EDT on August 30, 2015 (GMT -0400)
Village of Swanton | | Change Station
CLOSE
Current Station
Personal Weather Station
Location: Swanton, OH
Elevation: 692 ft
Nearby Weather Stations

Elev 692 ft 41.60 °N, 83.89 °W | Updated 3 seconds ago

Overcast
Overcast
67.6 °F
Feels Like 67.6 °F
N
0.0
Wind Variable Wind from WSW
Gusts 0.0 mph

Today
High -- | Low -- °F
--% Chance of Precip.
Yesterday
High -- | Low -- °F
Precip. -- in
6:59 AM 8:12 PM
Full, 100% visible
Pressure 30.02 in
Visibility 3.0 miles
Clouds Mostly Cloudy 3400 ft
Mostly Cloudy 4800 ft
Overcast 6000 ft
Dew Point 63 °F
Humidity 85%
Rainfall 0.12 in
Snow Depth Not available.
UV 0 out of 12
Pollen 8.60 out of 12
Air Quality Not available.
Flu Activity Not available.
METAR KTOL 300752Z 00000KT 3SM BR BKN034 BKN048 OVC060 19/19 A3003 RMK AO2 RAB39E52 SLP166 P0002 T01940194 $
Pressure 30.02 in
Visibility 3.0 miles
Clouds Mostly Cloudy 3400 ft
Mostly Cloudy 4800 ft
Overcast 6000 ft
Dew Point 63 °F
Humidity 85%
Rainfall 0.12 in
Snow Depth Not available.
UV 0 out of 12
Pollen 8.60 out of 12
Air Quality Not available.
Flu Activity Not available.
METAR KTOL 300752Z 00000KT 3SM BR BKN034 BKN048 OVC060 19/19 A3003 RMK AO2 RAB39E52 SLP166 P0002 T01940194 $

10-Day Weather Forecast

×

Almanac

Astronomy

Aug. 30, 2015 Rise Set
Actual Time
Civil Twilight
Nautical Twilight
Astronomical Twilight
Moon
Length of Visible Light
Length of Day
Tomorrow will be .
, % of the Moon is Illuminated

Today's Extremes

State Highs State Lows

Community

WunderPhotos

Upload Photos

1,850,906 photos uploaded!

WunderBlogs® & News

Nearby

Air Quality

  Air Quality AQ Index Pollutant
Not available.

Snow Depth

Station Depth Elevation

Earthquake Activity

City Distance Mag. Time & Date
Minimum magnitude displayed is 2.5.

Coastal Water Temperatures

Place Temperature

Stations

Nearby Weather Stations

Station Location Temp. Windchill Dew Point Humidity Wind Precip. Elev Updated Type